| time (UTC) | temp C | wind direction | speed KPH | gust KPH | rain 1hr cm | rain 24hr cm | rain mn cm | humidity % | barometer mb |
| 20260906220044 | 32 | 60 | 6.4 | 19.3 | 0.00 | 0.00 | 0.00 | 36 | 1002.3 |
| 20260906214548 | 31 | 49 | 9.7 | 16.1 | 0.00 | 0.00 | 0.00 | 35 | 1002.5 |
| 20260906213040 | 31 | 44 | 6.4 | 14.5 | 0.00 | 0.00 | 0.00 | 36 | 1002.6 |
| 20260906211536 | 31 | 9 | 8.0 | 17.7 | 0.00 | 0.00 | 0.00 | 36 | 1003.3 |
| 20260906210037 | 30 | 30 | 6.4 | 14.5 | 0.00 | 0.00 | 0.00 | 39 | 1003.6 |
| 20260906204533 | 29 | 18 | 6.4 | 12.9 | 0.00 | 0.00 | 0.00 | 40 | 1003.6 |
| 20260906203033 | 29 | 15 | 4.8 | 11.3 | 0.00 | 0.00 | 0.00 | 40 | 1003.8 |
| 20260906201543 | 31 | 25 | 8.0 | 17.7 | 0.00 | 0.00 | 0.00 | 36 | 1003.8 |
| 20260906200029 | 31 | 8 | 6.4 | 14.5 | 0.00 | 0.00 | 0.00 | 37 | 1004.0 |
| 20260906194537 | 31 | 34 | 6.4 | 12.9 | 0.00 | 0.00 | 0.00 | 38 | 1004.1 |
| 20260906193023 | 30 | 21 | 4.8 | 12.9 | 0.00 | 0.00 | 0.00 | 39 | 1004.2 |
| 20260906191520 | 30 | 4 | 1.6 | 12.9 | 0.00 | 0.00 | 0.00 | 42 | 1004.4 |
| 20260906190016 | 29 | 34 | 6.4 | 16.1 | 0.00 | 0.00 | 0.00 | 46 | 1004.4 |
| 20260906184513 | 28 | 51 | 6.4 | 17.7 | 0.00 | 0.00 | 0.00 | 47 | 1004.8 |
| 20260906183014 | 28 | 353 | 6.4 | 16.1 | 0.00 | 0.00 | 0.00 | 49 | 1005.2 |
| 20260906181516 | 27 | 42 | 3.2 | 9.7 | 0.00 | 0.00 | 0.00 | 52 | 1005.3 |
| 20260906180002 | 27 | 72 | 3.2 | 11.3 | 0.00 | 0.00 | 0.00 | 54 | 1005.5 |
| 20260906174605 | 27 | 61 | 3.2 | 9.7 | 0.00 | 0.00 | 0.00 | 55 | 1006.0 |
| 20260906173101 | 26 | 360 | 1.6 | 11.3 | 0.00 | 0.00 | 0.00 | 57 | 1006.4 |
| 20260906171552 | 26 | 100 | 3.2 | 11.3 | 0.00 | 0.00 | 0.00 | 56 | 1006.4 |
| 20260906170047 | 26 | 77 | 3.2 | 9.7 | 0.00 | 0.00 | 0.00 | 58 | 1006.8 |
| 20260906164546 | 25 | 98 | 1.6 | 9.7 | 0.00 | 0.00 | 0.00 | 62 | 1006.8 |
| 20260906163052 | 23 | 340 | 3.2 | 8.0 | 0.00 | 0.00 | 0.00 | 65 | 1006.7 |
| 20260906161538 | 23 | 344 | 4.8 | 11.3 | 0.00 | 0.00 | 0.00 | 64 | 1006.9 |
| 20260906160036 | 23 | 326 | 4.8 | 9.7 | 0.00 | 0.00 | 0.00 | 66 | 1006.8 |
| 20260906154531 | 22 | 335 | 1.6 | 9.7 | 0.00 | 0.00 | 0.00 | 67 | 1006.9 |
| 20260906153031 | 22 | 63 | 1.6 | 8.0 | 0.00 | 0.00 | 0.00 | 70 | 1006.9 |
| 20260906151523 | 21 | 354 | 3.2 | 9.7 | 0.00 | 0.00 | 0.00 | 73 | 1007.1 |
| 20260906150025 | 20 | 49 | 1.6 | 8.0 | 0.00 | 0.00 | 0.00 | 77 | 1007.2 |
| 20260906144519 | 18 | 25 | 1.6 | 3.2 | 0.00 | 0.00 | 0.00 | 78 | 1007.2 |
| 20260906143018 | 19 | 30 | 3.2 | 9.7 | 0.00 | 0.00 | 0.00 | 77 | 1007.3 |
| 20260906141516 | 18 | 35 | 4.8 | 12.9 | 0.00 | 0.00 | 0.00 | 79 | 1007.2 |
| 20260906140015 | 18 | 13 | 6.4 | 12.9 | 0.00 | 0.00 | 0.00 | 78 | 1007.3 |
| 20260906134511 | 17 | 6 | 3.2 | 8.0 | 0.00 | 0.00 | 0.00 | 80 | 1007.2 |
| 20260906133009 | 17 | 319 | 1.6 | 6.4 | 0.00 | 0.00 | 0.00 | 81 | 1007.2 |
| 20260906131509 | 16 | 314 | 1.6 | 3.2 | 0.00 | 0.00 | 0.00 | 84 | 1007.1 |
| 20260906130007 | 15 | 269 | 0.0 | 3.2 | 0.00 | 0.00 | 0.00 | 84 | 1007.2 |
| 20260906124503 | 15 | 360 | 0.0 | 3.2 | 0.00 | 0.00 | 0.00 | 84 | 1007.1 |
| 20260906123001 | 15 | 89 | 0.0 | 3.2 | 0.00 | 0.00 | 0.00 | 83 | 1007.0 |
| 20260906121500 | 15 | 360 | 0.0 | 3.2 | 0.00 | 0.00 | 0.00 | 82 | 1006.9 |
| 20260906120059 | 15 | 2 | 0.0 | 3.2 | 0.00 | 0.00 | 0.00 | 79 | 1006.9 |
| 20260906114614 | 15 | 39 | 1.6 | 3.2 | 0.00 | 0.00 | 0.00 | 78 | 1006.8 |
| 20260906113107 | 15 | 25 | 0.0 | 3.2 | 0.00 | 0.00 | 0.00 | 76 | 1007.0 |
| 20260906111554 | 15 | 324 | 0.0 | 3.2 | 0.00 | 0.00 | 0.00 | 74 | 1006.6 |
| 20260906110053 | 16 | 295 | 0.0 | 3.2 | 0.00 | 0.00 | 0.00 | 76 | 1006.7 |
| 20260906104551 | 16 | 331 | 1.6 | 4.8 | 0.00 | 0.00 | 0.00 | 76 | 1006.7 |
| 20260906103051 | 16 | 314 | 0.0 | 4.8 | 0.00 | 0.00 | 0.00 | 74 | 1006.7 |
| 20260906101550 | 16 | 2 | 0.0 | 3.2 | 0.00 | 0.00 | 0.00 | 73 | 1006.6 |
| 20260906100045 | 16 | 15 | 0.0 | 3.2 | 0.00 | 0.00 | 0.00 | 71 | 1006.6 |
| 20260906094549 | 17 | 2 | 1.6 | 3.2 | 0.00 | 0.00 | 0.00 | 70 | 1006.6 |
| 20260906093041 | 17 | 2 | 0.0 | 3.2 | 0.00 | 0.00 | 0.00 | 70 | 1006.7 |
| 20260906091543 | 17 | 286 | 0.0 | 3.2 | 0.00 | 0.00 | 0.00 | 68 | 1006.4 |
| 20260906090037 | 17 | 314 | 1.6 | 4.8 | 0.00 | 0.00 | 0.00 | 64 | 1006.0 |
| 20260906084536 | 18 | 9 | 1.6 | 4.8 | 0.00 | 0.00 | 0.00 | 62 | 1005.9 |
| 20260906083032 | 18 | 353 | 4.8 | 8.0 | 0.00 | 0.00 | 0.00 | 61 | 1005.8 |
| 20260906081538 | 18 | 37 | 1.6 | 6.4 | 0.00 | 0.00 | 0.00 | 57 | 1005.9 |
| 20260906080028 | 19 | 41 | 1.6 | 6.4 | 0.00 | 0.00 | 0.00 | 55 | 1006.1 |
| 20260906074527 | 19 | 35 | 4.8 | 9.7 | 0.00 | 0.00 | 0.00 | 54 | 1005.7 |
| 20260906073027 | 18 | 25 | 3.2 | 6.4 | 0.00 | 0.00 | 0.00 | 54 | 1005.9 |
| 20260906071523 | 19 | 340 | 0.0 | 3.2 | 0.00 | 0.00 | 0.00 | 54 | 1005.9 |
| 20260906070021 | 20 | 46 | 3.2 | 6.4 | 0.00 | 0.00 | 0.00 | 53 | 1005.8 |
| 20260906064525 | 21 | 360 | 1.6 | 4.8 | 0.00 | 0.00 | 0.00 | 52 | 1006.1 |
| 20260906063018 | 21 | 284 | 1.6 | 4.8 | 0.00 | 0.00 | 0.00 | 49 | 1006.0 |
| 20260906061517 | 21 | 9 | 3.2 | 4.8 | 0.00 | 0.00 | 0.00 | 48 | 1005.8 |
| 20260906060014 | 21 | 23 | 3.2 | 8.0 | 0.00 | 0.00 | 0.00 | 49 | 1005.5 |
| 20260906054512 | 21 | 15 | 0.0 | 3.2 | 0.00 | 0.00 | 0.00 | 50 | 1006.2 |
| 20260906053009 | 21 | 2 | 0.0 | 8.0 | 0.00 | 0.00 | 0.00 | 51 | 1006.3 |
| 20260906051506 | 20 | 360 | 6.4 | 9.7 | 0.00 | 0.00 | 0.00 | 54 | 1006.8 |
| 20260906050010 | 21 | 28 | 0.0 | 3.2 | 0.00 | 0.00 | 0.00 | 47 | 1006.0 |
| 20260906044502 | 22 | 60 | 1.6 | 3.2 | 0.00 | 0.00 | 0.00 | 45 | 1006.0 |
| 20260906043003 | 22 | 309 | 4.8 | 8.0 | 0.00 | 0.00 | 0.00 | 46 | 1006.0 |
| 20260906041601 | 21 | 46 | 0.0 | 3.2 | 0.00 | 0.00 | 0.00 | 47 | 1005.6 |
| 20260906040059 | 21 | 269 | 1.6 | 3.2 | 0.00 | 0.00 | 0.00 | 47 | 1005.2 |
| 20260906034602 | 21 | 35 | 1.6 | 3.2 | 0.00 | 0.00 | 0.00 | 47 | 1004.8 |
| 20260906033059 | 22 | 152 | 1.6 | 8.0 | 0.00 | 0.00 | 0.00 | 45 | 1004.9 |
| 20260906031624 | 22 | 13 | 1.6 | 6.4 | 0.00 | 0.03 | 0.00 | 45 | 1004.7 |
| 20260906030058 | 22 | 32 | 3.2 | 8.0 | 0.00 | 0.03 | 0.00 | 43 | 1004.4 |
| 20260906024600 | 25 | 28 | 1.6 | 3.2 | 0.00 | 0.03 | 0.00 | 38 | 1004.0 |
| 20260906023110 | 25 | 44 | 3.2 | 8.0 | 0.00 | 0.03 | 0.00 | 37 | 1003.9 |
| 20260906021557 | 26 | 321 | 3.2 | 9.7 | 0.00 | 0.03 | 0.00 | 35 | 1003.8 |
| 20260906020059 | 27 | 360 | 1.6 | 14.5 | 0.00 | 0.03 | 0.00 | 34 | 1004.0 |
| 20260906014555 | 27 | 328 | 6.4 | 16.1 | 0.00 | 0.03 | 0.00 | 33 | 1003.7 |
| 20260906013055 | 27 | 323 | 8.0 | 17.7 | 0.00 | 0.03 | 0.00 | 33 | 1003.4 |
| 20260906011601 | 28 | 2 | 3.2 | 12.9 | 0.00 | 0.03 | 0.00 | 31 | 1003.5 |
| 20260906010054 | 29 | 344 | 6.4 | 14.5 | 0.00 | 0.03 | 0.00 | 29 | 1003.3 |
| 20260906004559 | 30 | 302 | 4.8 | 20.9 | 0.00 | 0.03 | 0.00 | 28 | 1003.4 |
| 20260906003054 | 31 | 15 | 4.8 | 14.5 | 0.00 | 0.03 | 0.00 | 27 | 1003.4 |
| 20260906001553 | 31 | 331 | 6.4 | 16.1 | 0.00 | 0.03 | 0.00 | 26 | 1003.3 |
| 20260906000059 | 31 | 20 | 8.0 | 17.7 | 0.00 | 0.03 | 0.00 | 26 | 1003.2 |
| 20260905234554 | 31 | 18 | 1.6 | 8.0 | 0.00 | 0.03 | 0.00 | 25 | 1003.1 |
| 20260905233056 | 32 | 2 | 3.2 | 8.0 | 0.00 | 0.03 | 0.00 | 24 | 1002.9 |
| 20260905231551 | 32 | 49 | 1.6 | 8.0 | 0.00 | 0.03 | 0.00 | 25 | 1002.9 |
| 20260905230048 | 32 | 16 | 3.2 | 9.7 | 0.00 | 0.03 | 0.00 | 23 | 1002.8 |
| 20260905224548 | 33 | 46 | 4.8 | 12.9 | 0.00 | 0.03 | 0.00 | 22 | 1002.8 |
| 20260905223047 | 33 | 63 | 4.8 | 11.3 | 0.00 | 0.03 | 0.00 | 23 | 1002.9 |
| 20260905221600 | 35 | 37 | 3.2 | 12.9 | 0.00 | 0.03 | 0.00 | 21 | 1002.9 |